sensor_id;sensor_type;location;lat;lon;timestamp;P1;durP1;ratioP1;P2;durP2;ratioP2
53263;SDS011;39153;52.680;6.172;2023-09-08T00:00:56;9.45;;;6.82;;
53263;SDS011;39153;52.680;6.172;2023-09-08T00:03:22;8.38;;;6.63;;
53263;SDS011;39153;52.680;6.172;2023-09-08T00:05:47;7.97;;;6.60;;
53263;SDS011;39153;52.680;6.172;2023-09-08T00:08:13;8.68;;;6.63;;
53263;SDS011;39153;52.680;6.172;2023-09-08T00:10:39;8.25;;;6.85;;
53263;SDS011;39153;52.680;6.172;2023-09-08T00:13:05;9.18;;;6.70;;
53263;SDS011;39153;52.680;6.172;2023-09-08T00:15:33;9.43;;;6.93;;
53263;SDS011;39153;52.680;6.172;2023-09-08T00:17:59;9.57;;;7.40;;
53263;SDS011;39153;52.680;6.172;2023-09-08T00:20:25;8.95;;;6.32;;
53263;SDS011;39153;52.680;6.172;2023-09-08T00:22:51;9.75;;;6.43;;
53263;SDS011;39153;52.680;6.172;2023-09-08T00:25:17;10.20;;;7.05;;
53263;SDS011;39153;52.680;6.172;2023-09-08T00:27:42;8.63;;;6.40;;
53263;SDS011;39153;52.680;6.172;2023-09-08T00:30:08;9.63;;;7.20;;
53263;SDS011;39153;52.680;6.172;2023-09-08T00:32:34;10.73;;;7.00;;
53263;SDS011;39153;52.680;6.172;2023-09-08T00:35:00;11.25;;;7.22;;
53263;SDS011;39153;52.680;6.172;2023-09-08T00:37:26;8.23;;;6.60;;
53263;SDS011;39153;52.680;6.172;2023-09-08T00:39:51;9.02;;;7.03;;
53263;SDS011;39153;52.680;6.172;2023-09-08T00:42:17;9.18;;;7.35;;
53263;SDS011;39153;52.680;6.172;2023-09-08T00:44:43;9.77;;;7.10;;
53263;SDS011;39153;52.680;6.172;2023-09-08T00:47:08;9.27;;;7.30;;
53263;SDS011;39153;52.680;6.172;2023-09-08T00:49:34;7.95;;;7.15;;
53263;SDS011;39153;52.680;6.172;2023-09-08T00:52:00;10.15;;;7.32;;
53263;SDS011;39153;52.680;6.172;2023-09-08T00:54:25;9.15;;;7.80;;
53263;SDS011;39153;52.680;6.172;2023-09-08T00:56:57;9.10;;;7.88;;
53263;SDS011;39153;52.680;6.172;2023-09-08T00:59:26;9.38;;;7.32;;
53263;SDS011;39153;52.680;6.172;2023-09-08T01:01:52;9.23;;;7.53;;
53263;SDS011;39153;52.680;6.172;2023-09-08T01:04:18;9.25;;;7.30;;
53263;SDS011;39153;52.680;6.172;2023-09-08T01:06:45;9.35;;;7.97;;
53263;SDS011;39153;52.680;6.172;2023-09-08T01:09:11;9.98;;;8.20;;
53263;SDS011;39153;52.680;6.172;2023-09-08T01:11:38;11.68;;;7.95;;
53263;SDS011;39153;52.680;6.172;2023-09-08T01:14:04;11.23;;;8.35;;
53263;SDS011;39153;52.680;6.172;2023-09-08T01:16:30;10.35;;;8.27;;
53263;SDS011;39153;52.680;6.172;2023-09-08T01:18:56;9.75;;;7.68;;
53263;SDS011;39153;52.680;6.172;2023-09-08T01:27:46;10.73;;;8.73;;
53263;SDS011;39153;52.680;6.172;2023-09-08T01:30:14;10.02;;;8.57;;
53263;SDS011;39153;52.680;6.172;2023-09-08T01:32:41;10.68;;;8.52;;
53263;SDS011;39153;52.680;6.172;2023-09-08T01:35:09;9.48;;;8.50;;
53263;SDS011;39153;52.680;6.172;2023-09-08T01:37:35;11.35;;;8.90;;
53263;SDS011;39153;52.680;6.172;2023-09-08T01:40:04;10.75;;;9.20;;
53263;SDS011;39153;52.680;6.172;2023-09-08T01:42:30;9.75;;;8.75;;
53263;SDS011;39153;52.680;6.172;2023-09-08T01:44:56;11.82;;;8.50;;
53263;SDS011;39153;52.680;6.172;2023-09-08T01:47:21;10.98;;;8.65;;
53263;SDS011;39153;52.680;6.172;2023-09-08T01:49:47;10.70;;;8.57;;
53263;SDS011;39153;52.680;6.172;2023-09-08T01:52:13;11.57;;;9.05;;
53263;SDS011;39153;52.680;6.172;2023-09-08T01:54:38;10.88;;;8.98;;
53263;SDS011;39153;52.680;6.172;2023-09-08T01:57:04;11.60;;;8.63;;
53263;SDS011;39153;52.680;6.172;2023-09-08T01:59:30;9.75;;;8.75;;
53263;SDS011;39153;52.680;6.172;2023-09-08T02:01:55;11.77;;;9.63;;
53263;SDS011;39153;52.680;6.172;2023-09-08T02:04:21;13.82;;;10.32;;
53263;SDS011;39153;52.680;6.172;2023-09-08T02:06:47;11.10;;;9.35;;
53263;SDS011;39153;52.680;6.172;2023-09-08T02:09:14;11.88;;;9.52;;
53263;SDS011;39153;52.680;6.172;2023-09-08T02:11:40;10.07;;;8.98;;
53263;SDS011;39153;52.680;6.172;2023-09-08T02:14:07;10.50;;;9.40;;
53263;SDS011;39153;52.680;6.172;2023-09-08T02:16:34;12.32;;;9.27;;
53263;SDS011;39153;52.680;6.172;2023-09-08T02:18:59;12.00;;;9.27;;
53263;SDS011;39153;52.680;6.172;2023-09-08T02:21:25;12.15;;;9.02;;
53263;SDS011;39153;52.680;6.172;2023-09-08T02:23:51;11.75;;;9.50;;
53263;SDS011;39153;52.680;6.172;2023-09-08T02:26:16;10.38;;;8.45;;
53263;SDS011;39153;52.680;6.172;2023-09-08T02:28:42;10.35;;;8.73;;
53263;SDS011;39153;52.680;6.172;2023-09-08T02:31:08;10.23;;;9.13;;
53263;SDS011;39153;52.680;6.172;2023-09-08T02:33:34;12.90;;;9.85;;
53263;SDS011;39153;52.680;6.172;2023-09-08T02:36:03;11.07;;;8.75;;
53263;SDS011;39153;52.680;6.172;2023-09-08T02:38:32;11.20;;;9.07;;
53263;SDS011;39153;52.680;6.172;2023-09-08T02:40:58;11.07;;;8.90;;
53263;SDS011;39153;52.680;6.172;2023-09-08T02:43:24;10.43;;;9.30;;
53263;SDS011;39153;52.680;6.172;2023-09-08T02:45:50;11.82;;;9.35;;
53263;SDS011;39153;52.680;6.172;2023-09-08T02:48:15;11.52;;;9.13;;
53263;SDS011;39153;52.680;6.172;2023-09-08T02:50:41;10.55;;;8.32;;
53263;SDS011;39153;52.680;6.172;2023-09-08T02:53:08;12.02;;;9.13;;
53263;SDS011;39153;52.680;6.172;2023-09-08T02:55:34;10.20;;;8.48;;
53263;SDS011;39153;52.680;6.172;2023-09-08T02:58:00;11.57;;;9.20;;
53263;SDS011;39153;52.680;6.172;2023-09-08T03:00:26;11.82;;;9.48;;
53263;SDS011;39153;52.680;6.172;2023-09-08T03:02:52;12.25;;;9.25;;
53263;SDS011;39153;52.680;6.172;2023-09-08T03:05:17;10.98;;;9.27;;
53263;SDS011;39153;52.680;6.172;2023-09-08T03:07:43;13.10;;;10.00;;
53263;SDS011;39153;52.680;6.172;2023-09-08T03:10:12;13.45;;;9.75;;
53263;SDS011;39153;52.680;6.172;2023-09-08T03:12:38;10.52;;;9.18;;
53263;SDS011;39153;52.680;6.172;2023-09-08T03:15:03;12.15;;;10.95;;
53263;SDS011;39153;52.680;6.172;2023-09-08T03:17:29;10.82;;;9.73;;
53263;SDS011;39153;52.680;6.172;2023-09-08T03:19:55;12.88;;;9.52;;
53263;SDS011;39153;52.680;6.172;2023-09-08T03:22:21;13.02;;;10.55;;
53263;SDS011;39153;52.680;6.172;2023-09-08T03:24:47;12.25;;;10.18;;
53263;SDS011;39153;52.680;6.172;2023-09-08T03:27:12;11.88;;;9.63;;
53263;SDS011;39153;52.680;6.172;2023-09-08T03:29:38;15.45;;;10.27;;
53263;SDS011;39153;52.680;6.172;2023-09-08T03:32:04;14.57;;;9.93;;
53263;SDS011;39153;52.680;6.172;2023-09-08T03:34:30;10.68;;;9.45;;
53263;SDS011;39153;52.680;6.172;2023-09-08T03:36:56;11.63;;;10.30;;
53263;SDS011;39153;52.680;6.172;2023-09-08T03:39:21;14.43;;;10.07;;
53263;SDS011;39153;52.680;6.172;2023-09-08T03:41:47;13.05;;;10.90;;
53263;SDS011;39153;52.680;6.172;2023-09-08T03:44:13;12.32;;;10.48;;
53263;SDS011;39153;52.680;6.172;2023-09-08T03:46:38;11.95;;;10.18;;
53263;SDS011;39153;52.680;6.172;2023-09-08T03:49:04;12.52;;;10.43;;
53263;SDS011;39153;52.680;6.172;2023-09-08T03:51:30;11.70;;;10.32;;
53263;SDS011;39153;52.680;6.172;2023-09-08T03:53:56;13.00;;;10.70;;
53263;SDS011;39153;52.680;6.172;2023-09-08T03:56:22;14.73;;;11.02;;
53263;SDS011;39153;52.680;6.172;2023-09-08T03:58:47;12.40;;;10.73;;
53263;SDS011;39153;52.680;6.172;2023-09-08T04:01:13;11.90;;;10.70;;
53263;SDS011;39153;52.680;6.172;2023-09-08T04:03:39;13.27;;;10.77;;
53263;SDS011;39153;52.680;6.172;2023-09-08T04:06:05;15.15;;;10.35;;
53263;SDS011;39153;52.680;6.172;2023-09-08T04:08:31;13.25;;;11.07;;
53263;SDS011;39153;52.680;6.172;2023-09-08T04:10:56;12.05;;;10.80;;
53263;SDS011;39153;52.680;6.172;2023-09-08T04:13:22;16.77;;;11.02;;
53263;SDS011;39153;52.680;6.172;2023-09-08T04:15:48;17.45;;;10.98;;
53263;SDS011;39153;52.680;6.172;2023-09-08T04:18:13;12.35;;;11.05;;
53263;SDS011;39153;52.680;6.172;2023-09-08T04:20:39;13.93;;;11.15;;
53263;SDS011;39153;52.680;6.172;2023-09-08T04:23:05;13.02;;;10.80;;
53263;SDS011;39153;52.680;6.172;2023-09-08T04:25:30;13.65;;;10.88;;
53263;SDS011;39153;52.680;6.172;2023-09-08T04:27:56;14.00;;;10.63;;
53263;SDS011;39153;52.680;6.172;2023-09-08T04:30:22;12.02;;;10.52;;
53263;SDS011;39153;52.680;6.172;2023-09-08T04:32:47;11.95;;;10.57;;
53263;SDS011;39153;52.680;6.172;2023-09-08T04:35:13;12.30;;;11.10;;
53263;SDS011;39153;52.680;6.172;2023-09-08T04:37:39;13.82;;;11.45;;
53263;SDS011;39153;52.680;6.172;2023-09-08T04:40:05;13.05;;;10.38;;
53263;SDS011;39153;52.680;6.172;2023-09-08T04:42:32;13.43;;;11.38;;
53263;SDS011;39153;52.680;6.172;2023-09-08T04:44:58;14.30;;;11.50;;
53263;SDS011;39153;52.680;6.172;2023-09-08T04:47:24;14.20;;;11.65;;
53263;SDS011;39153;52.680;6.172;2023-09-08T04:49:49;13.40;;;10.98;;
53263;SDS011;39153;52.680;6.172;2023-09-08T04:52:15;13.73;;;11.02;;
53263;SDS011;39153;52.680;6.172;2023-09-08T04:54:41;19.50;;;10.82;;
53263;SDS011;39153;52.680;6.172;2023-09-08T04:57:06;14.10;;;11.75;;
53263;SDS011;39153;52.680;6.172;2023-09-08T04:59:32;14.88;;;10.70;;
53263;SDS011;39153;52.680;6.172;2023-09-08T05:01:58;12.80;;;11.45;;
53263;SDS011;39153;52.680;6.172;2023-09-08T05:04:24;12.20;;;10.98;;
53263;SDS011;39153;52.680;6.172;2023-09-08T05:06:50;14.25;;;11.45;;
53263;SDS011;39153;52.680;6.172;2023-09-08T05:09:15;13.80;;;12.10;;
53263;SDS011;39153;52.680;6.172;2023-09-08T05:11:41;13.52;;;11.93;;
53263;SDS011;39153;52.680;6.172;2023-09-08T05:14:07;13.27;;;11.25;;
53263;SDS011;39153;52.680;6.172;2023-09-08T05:16:33;14.00;;;11.63;;
53263;SDS011;39153;52.680;6.172;2023-09-08T05:19:11;12.50;;;10.88;;
53263;SDS011;39153;52.680;6.172;2023-09-08T05:21:38;13.25;;;11.85;;
53263;SDS011;39153;52.680;6.172;2023-09-08T05:24:05;14.20;;;11.68;;
53263;SDS011;39153;52.680;6.172;2023-09-08T05:26:31;14.93;;;11.73;;
53263;SDS011;39153;52.680;6.172;2023-09-08T05:28:57;13.45;;;12.02;;
53263;SDS011;39153;52.680;6.172;2023-09-08T05:31:22;12.43;;;11.23;;
53263;SDS011;39153;52.680;6.172;2023-09-08T05:33:48;12.52;;;11.32;;
53263;SDS011;39153;52.680;6.172;2023-09-08T05:36:14;12.48;;;11.20;;
53263;SDS011;39153;52.680;6.172;2023-09-08T05:38:40;14.05;;;11.15;;
53263;SDS011;39153;52.680;6.172;2023-09-08T05:41:05;14.75;;;11.70;;
53263;SDS011;39153;52.680;6.172;2023-09-08T05:43:31;13.27;;;11.88;;
53263;SDS011;39153;52.680;6.172;2023-09-08T05:45:57;12.57;;;11.13;;
53263;SDS011;39153;52.680;6.172;2023-09-08T05:48:22;14.90;;;12.00;;
53263;SDS011;39153;52.680;6.172;2023-09-08T05:50:48;13.73;;;10.80;;
53263;SDS011;39153;52.680;6.172;2023-09-08T05:53:14;14.32;;;11.05;;
53263;SDS011;39153;52.680;6.172;2023-09-08T05:55:39;13.98;;;11.45;;
53263;SDS011;39153;52.680;6.172;2023-09-08T05:58:05;13.70;;;11.50;;
53263;SDS011;39153;52.680;6.172;2023-09-08T06:00:32;14.50;;;11.38;;
53263;SDS011;39153;52.680;6.172;2023-09-08T06:02:58;14.00;;;11.73;;
53263;SDS011;39153;52.680;6.172;2023-09-08T06:05:24;14.45;;;11.55;;
53263;SDS011;39153;52.680;6.172;2023-09-08T06:07:50;13.25;;;11.40;;
53263;SDS011;39153;52.680;6.172;2023-09-08T06:10:15;12.95;;;10.93;;
53263;SDS011;39153;52.680;6.172;2023-09-08T06:12:41;12.80;;;10.88;;
53263;SDS011;39153;52.680;6.172;2023-09-08T06:15:08;12.73;;;11.48;;
53263;SDS011;39153;52.680;6.172;2023-09-08T06:17:34;12.48;;;11.27;;
53263;SDS011;39153;52.680;6.172;2023-09-08T06:19:59;13.32;;;11.00;;
53263;SDS011;39153;52.680;6.172;2023-09-08T06:22:25;12.68;;;11.13;;
53263;SDS011;39153;52.680;6.172;2023-09-08T06:24:51;12.30;;;11.00;;
53263;SDS011;39153;52.680;6.172;2023-09-08T06:27:17;13.10;;;10.95;;
53263;SDS011;39153;52.680;6.172;2023-09-08T06:29:42;13.32;;;10.55;;
53263;SDS011;39153;52.680;6.172;2023-09-08T06:32:09;11.98;;;10.65;;
53263;SDS011;39153;52.680;6.172;2023-09-08T06:34:35;14.85;;;10.90;;
53263;SDS011;39153;52.680;6.172;2023-09-08T06:37:01;12.48;;;11.20;;
53263;SDS011;39153;52.680;6.172;2023-09-08T06:39:27;14.48;;;11.02;;
53263;SDS011;39153;52.680;6.172;2023-09-08T06:41:53;13.57;;;10.90;;
53263;SDS011;39153;52.680;6.172;2023-09-08T06:44:20;13.75;;;10.68;;
53263;SDS011;39153;52.680;6.172;2023-09-08T06:46:46;13.43;;;10.90;;
53263;SDS011;39153;52.680;6.172;2023-09-08T06:49:12;15.13;;;11.13;;
53263;SDS011;39153;52.680;6.172;2023-09-08T06:51:37;12.32;;;10.82;;
53263;SDS011;39153;52.680;6.172;2023-09-08T06:54:04;14.00;;;11.05;;
53263;SDS011;39153;52.680;6.172;2023-09-08T06:56:29;12.45;;;10.88;;
53263;SDS011;39153;52.680;6.172;2023-09-08T06:58:55;14.75;;;11.68;;
53263;SDS011;39153;52.680;6.172;2023-09-08T07:01:23;13.27;;;10.75;;
53263;SDS011;39153;52.680;6.172;2023-09-08T07:03:49;11.38;;;10.15;;
53263;SDS011;39153;52.680;6.172;2023-09-08T07:06:15;12.32;;;10.88;;
53263;SDS011;39153;52.680;6.172;2023-09-08T07:08:41;12.43;;;10.50;;
53263;SDS011;39153;52.680;6.172;2023-09-08T07:11:07;13.10;;;10.63;;
53263;SDS011;39153;52.680;6.172;2023-09-08T07:13:33;11.95;;;9.77;;
53263;SDS011;39153;52.680;6.172;2023-09-08T07:15:59;12.82;;;10.88;;
53263;SDS011;39153;52.680;6.172;2023-09-08T07:18:25;13.70;;;11.15;;
53263;SDS011;39153;52.680;6.172;2023-09-08T07:20:50;12.48;;;11.18;;
53263;SDS011;39153;52.680;6.172;2023-09-08T07:23:16;12.27;;;10.23;;
53263;SDS011;39153;52.680;6.172;2023-09-08T07:25:48;14.00;;;10.90;;
53263;SDS011;39153;52.680;6.172;2023-09-08T07:28:15;13.15;;;11.25;;
53263;SDS011;39153;52.680;6.172;2023-09-08T07:30:41;13.05;;;10.25;;
53263;SDS011;39153;52.680;6.172;2023-09-08T07:33:07;13.45;;;10.68;;
53263;SDS011;39153;52.680;6.172;2023-09-08T07:35:36;11.43;;;10.27;;
53263;SDS011;39153;52.680;6.172;2023-09-08T07:38:02;12.13;;;10.05;;
53263;SDS011;39153;52.680;6.172;2023-09-08T07:40:28;15.75;;;9.80;;
53263;SDS011;39153;52.680;6.172;2023-09-08T07:42:53;13.02;;;10.70;;
53263;SDS011;39153;52.680;6.172;2023-09-08T07:45:19;12.00;;;9.38;;
53263;SDS011;39153;52.680;6.172;2023-09-08T07:47:45;12.52;;;10.73;;
53263;SDS011;39153;52.680;6.172;2023-09-08T07:50:17;11.93;;;9.75;;
53263;SDS011;39153;52.680;6.172;2023-09-08T07:52:49;13.32;;;10.65;;
53263;SDS011;39153;52.680;6.172;2023-09-08T07:55:16;12.70;;;9.85;;
53263;SDS011;39153;52.680;6.172;2023-09-08T07:57:42;11.60;;;10.38;;
53263;SDS011;39153;52.680;6.172;2023-09-08T08:00:09;11.88;;;10.18;;
53263;SDS011;39153;52.680;6.172;2023-09-08T08:02:46;11.27;;;9.73;;
53263;SDS011;39153;52.680;6.172;2023-09-08T08:05:16;14.65;;;9.68;;
53263;SDS011;39153;52.680;6.172;2023-09-08T08:07:43;12.32;;;9.20;;
53263;SDS011;39153;52.680;6.172;2023-09-08T08:10:09;12.43;;;9.10;;
53263;SDS011;39153;52.680;6.172;2023-09-08T08:12:36;11.40;;;9.60;;
53263;SDS011;39153;52.680;6.172;2023-09-08T08:15:02;12.98;;;9.13;;
53263;SDS011;39153;52.680;6.172;2023-09-08T08:17:29;13.88;;;9.35;;
53263;SDS011;39153;52.680;6.172;2023-09-08T08:19:56;11.13;;;8.68;;
53263;SDS011;39153;52.680;6.172;2023-09-08T08:22:31;10.77;;;8.65;;
53263;SDS011;39153;52.680;6.172;2023-09-08T08:24:57;11.23;;;8.43;;
53263;SDS011;39153;52.680;6.172;2023-09-08T08:27:22;13.95;;;8.98;;
53263;SDS011;39153;52.680;6.172;2023-09-08T08:29:48;13.38;;;9.05;;
53263;SDS011;39153;52.680;6.172;2023-09-08T08:32:14;11.02;;;8.80;;
53263;SDS011;39153;52.680;6.172;2023-09-08T08:34:39;10.98;;;8.35;;
53263;SDS011;39153;52.680;6.172;2023-09-08T08:37:05;10.35;;;8.07;;
53263;SDS011;39153;52.680;6.172;2023-09-08T08:39:31;11.95;;;8.77;;
53263;SDS011;39153;52.680;6.172;2023-09-08T08:41:56;10.95;;;8.40;;
53263;SDS011;39153;52.680;6.172;2023-09-08T08:44:23;11.50;;;7.95;;
53263;SDS011;39153;52.680;6.172;2023-09-08T08:46:49;12.32;;;8.13;;
53263;SDS011;39153;52.680;6.172;2023-09-08T08:49:16;9.77;;;7.25;;
53263;SDS011;39153;52.680;6.172;2023-09-08T08:51:44;10.68;;;7.82;;
53263;SDS011;39153;52.680;6.172;2023-09-08T08:54:12;11.88;;;7.80;;
53263;SDS011;39153;52.680;6.172;2023-09-08T08:56:38;10.68;;;7.85;;
53263;SDS011;39153;52.680;6.172;2023-09-08T08:59:05;12.95;;;8.25;;
53263;SDS011;39153;52.680;6.172;2023-09-08T09:01:31;11.13;;;7.78;;
53263;SDS011;39153;52.680;6.172;2023-09-08T09:03:57;9.93;;;7.78;;
53263;SDS011;39153;52.680;6.172;2023-09-08T09:06:23;10.73;;;7.43;;
53263;SDS011;39153;52.680;6.172;2023-09-08T09:08:49;11.80;;;7.32;;
53263;SDS011;39153;52.680;6.172;2023-09-08T09:11:15;11.00;;;7.57;;
53263;SDS011;39153;52.680;6.172;2023-09-08T09:13:41;10.90;;;8.25;;
53263;SDS011;39153;52.680;6.172;2023-09-08T09:16:06;13.05;;;8.10;;
53263;SDS011;39153;52.680;6.172;2023-09-08T09:21:23;11.05;;;7.35;;
53263;SDS011;39153;52.680;6.172;2023-09-08T09:24:05;9.70;;;6.80;;
53263;SDS011;39153;52.680;6.172;2023-09-08T09:26:31;9.68;;;7.38;;
53263;SDS011;39153;52.680;6.172;2023-09-08T09:28:57;10.70;;;7.43;;
53263;SDS011;39153;52.680;6.172;2023-09-08T09:31:24;11.98;;;7.13;;
53263;SDS011;39153;52.680;6.172;2023-09-08T09:34:01;10.52;;;7.05;;
53263;SDS011;39153;52.680;6.172;2023-09-08T09:36:30;12.98;;;7.70;;
53263;SDS011;39153;52.680;6.172;2023-09-08T09:39:00;11.38;;;7.28;;
53263;SDS011;39153;52.680;6.172;2023-09-08T09:41:29;10.70;;;6.78;;
53263;SDS011;39153;52.680;6.172;2023-09-08T09:43:56;11.02;;;6.97;;
53263;SDS011;39153;52.680;6.172;2023-09-08T09:46:22;10.32;;;7.82;;
53263;SDS011;39153;52.680;6.172;2023-09-08T09:48:51;10.52;;;7.57;;
53263;SDS011;39153;52.680;6.172;2023-09-08T09:51:21;10.13;;;6.93;;
53263;SDS011;39153;52.680;6.172;2023-09-08T09:53:49;10.82;;;6.88;;
53263;SDS011;39153;52.680;6.172;2023-09-08T09:56:15;11.30;;;7.10;;
53263;SDS011;39153;52.680;6.172;2023-09-08T09:58:42;10.52;;;5.95;;
53263;SDS011;39153;52.680;6.172;2023-09-08T10:01:10;9.00;;;6.03;;
53263;SDS011;39153;52.680;6.172;2023-09-08T10:03:39;11.80;;;7.13;;
53263;SDS011;39153;52.680;6.172;2023-09-08T10:06:05;10.43;;;7.22;;
53263;SDS011;39153;52.680;6.172;2023-09-08T10:08:34;8.50;;;6.80;;
53263;SDS011;39153;52.680;6.172;2023-09-08T10:11:05;8.70;;;6.78;;
53263;SDS011;39153;52.680;6.172;2023-09-08T10:13:35;9.30;;;7.38;;
53263;SDS011;39153;52.680;6.172;2023-09-08T10:16:05;10.32;;;6.20;;
53263;SDS011;39153;52.680;6.172;2023-09-08T10:18:33;10.90;;;6.78;;
53263;SDS011;39153;52.680;6.172;2023-09-08T10:21:00;8.68;;;7.20;;
53263;SDS011;39153;52.680;6.172;2023-09-08T10:23:32;11.63;;;7.07;;
53263;SDS011;39153;52.680;6.172;2023-09-08T10:26:01;9.95;;;6.95;;
53263;SDS011;39153;52.680;6.172;2023-09-08T10:28:30;10.52;;;7.63;;
53263;SDS011;39153;52.680;6.172;2023-09-08T10:30:58;10.63;;;5.88;;
53263;SDS011;39153;52.680;6.172;2023-09-08T10:33:24;9.23;;;6.00;;
53263;SDS011;39153;52.680;6.172;2023-09-08T10:35:51;10.32;;;6.00;;
53263;SDS011;39153;52.680;6.172;2023-09-08T10:38:21;8.30;;;5.78;;
53263;SDS011;39153;52.680;6.172;2023-09-08T10:40:49;9.30;;;5.43;;
53263;SDS011;39153;52.680;6.172;2023-09-08T10:43:14;7.75;;;5.50;;
53263;SDS011;39153;52.680;6.172;2023-09-08T10:45:40;8.43;;;5.35;;
53263;SDS011;39153;52.680;6.172;2023-09-08T10:48:06;9.93;;;5.53;;
53263;SDS011;39153;52.680;6.172;2023-09-08T10:50:34;10.07;;;5.55;;
53263;SDS011;39153;52.680;6.172;2023-09-08T10:55:41;8.75;;;5.55;;
53263;SDS011;39153;52.680;6.172;2023-09-08T10:58:17;9.30;;;5.18;;
53263;SDS011;39153;52.680;6.172;2023-09-08T11:00:51;7.20;;;5.40;;
53263;SDS011;39153;52.680;6.172;2023-09-08T11:06:19;8.27;;;5.65;;
53263;SDS011;39153;52.680;6.172;2023-09-08T11:08:48;7.97;;;5.03;;
53263;SDS011;39153;52.680;6.172;2023-09-08T11:11:18;7.70;;;5.32;;
53263;SDS011;39153;52.680;6.172;2023-09-08T11:13:44;10.65;;;5.30;;
53263;SDS011;39153;52.680;6.172;2023-09-08T11:16:13;8.95;;;4.78;;
53263;SDS011;39153;52.680;6.172;2023-09-08T11:18:40;10.05;;;5.35;;
53263;SDS011;39153;52.680;6.172;2023-09-08T11:21:07;10.27;;;4.85;;
53263;SDS011;39153;52.680;6.172;2023-09-08T11:23:34;10.60;;;4.90;;
53263;SDS011;39153;52.680;6.172;2023-09-08T11:26:00;8.73;;;5.05;;
53263;SDS011;39153;52.680;6.172;2023-09-08T11:28:26;9.55;;;5.22;;
53263;SDS011;39153;52.680;6.172;2023-09-08T11:30:53;10.98;;;5.18;;
53263;SDS011;39153;52.680;6.172;2023-09-08T11:33:21;7.78;;;5.35;;
53263;SDS011;39153;52.680;6.172;2023-09-08T11:35:52;7.03;;;5.10;;
53263;SDS011;39153;52.680;6.172;2023-09-08T11:38:19;7.50;;;4.85;;
53263;SDS011;39153;52.680;6.172;2023-09-08T11:40:51;9.77;;;5.05;;
53263;SDS011;39153;52.680;6.172;2023-09-08T11:43:22;8.90;;;4.95;;
53263;SDS011;39153;52.680;6.172;2023-09-08T11:45:48;8.27;;;5.38;;
53263;SDS011;39153;52.680;6.172;2023-09-08T11:48:15;7.38;;;4.95;;
53263;SDS011;39153;52.680;6.172;2023-09-08T11:50:41;8.30;;;5.43;;
53263;SDS011;39153;52.680;6.172;2023-09-08T11:53:07;7.88;;;5.07;;
53263;SDS011;39153;52.680;6.172;2023-09-08T11:55:34;7.50;;;5.03;;
53263;SDS011;39153;52.680;6.172;2023-09-08T11:58:01;8.05;;;5.00;;
53263;SDS011;39153;52.680;6.172;2023-09-08T12:00:28;7.15;;;5.10;;
53263;SDS011;39153;52.680;6.172;2023-09-08T12:02:55;9.15;;;4.85;;
53263;SDS011;39153;52.680;6.172;2023-09-08T12:05:33;8.32;;;4.68;;
53263;SDS011;39153;52.680;6.172;2023-09-08T12:07:59;6.97;;;4.85;;
53263;SDS011;39153;52.680;6.172;2023-09-08T12:10:30;8.65;;;5.25;;
53263;SDS011;39153;52.680;6.172;2023-09-08T12:13:02;7.70;;;5.28;;
53263;SDS011;39153;52.680;6.172;2023-09-08T12:15:35;9.10;;;5.20;;
53263;SDS011;39153;52.680;6.172;2023-09-08T12:18:06;8.48;;;4.93;;
53263;SDS011;39153;52.680;6.172;2023-09-08T12:20:33;8.18;;;4.97;;
53263;SDS011;39153;52.680;6.172;2023-09-08T12:23:00;7.40;;;4.70;;
53263;SDS011;39153;52.680;6.172;2023-09-08T12:25:27;10.00;;;5.30;;
53263;SDS011;39153;52.680;6.172;2023-09-08T12:27:53;9.13;;;5.78;;
53263;SDS011;39153;52.680;6.172;2023-09-08T12:30:20;10.90;;;5.18;;
53263;SDS011;39153;52.680;6.172;2023-09-08T12:32:50;9.27;;;5.97;;
53263;SDS011;39153;52.680;6.172;2023-09-08T12:35:19;9.20;;;4.80;;
53263;SDS011;39153;52.680;6.172;2023-09-08T12:37:59;7.00;;;5.22;;
53263;SDS011;39153;52.680;6.172;2023-09-08T12:40:26;7.75;;;4.63;;
53263;SDS011;39153;52.680;6.172;2023-09-08T12:42:52;6.90;;;4.40;;
53263;SDS011;39153;52.680;6.172;2023-09-08T12:45:19;6.50;;;4.70;;
53263;SDS011;39153;52.680;6.172;2023-09-08T12:47:46;6.40;;;4.53;;
53263;SDS011;39153;52.680;6.172;2023-09-08T12:50:12;8.32;;;4.82;;
53263;SDS011;39153;52.680;6.172;2023-09-08T12:52:38;8.23;;;4.40;;
53263;SDS011;39153;52.680;6.172;2023-09-08T12:55:04;6.95;;;4.10;;
53263;SDS011;39153;52.680;6.172;2023-09-08T12:57:31;10.10;;;5.25;;
53263;SDS011;39153;52.680;6.172;2023-09-08T12:59:56;10.05;;;4.55;;
53263;SDS011;39153;52.680;6.172;2023-09-08T13:02:22;8.80;;;4.25;;
53263;SDS011;39153;52.680;6.172;2023-09-08T13:04:48;9.63;;;4.00;;
53263;SDS011;39153;52.680;6.172;2023-09-08T13:07:16;8.45;;;4.32;;
53263;SDS011;39153;52.680;6.172;2023-09-08T13:09:43;7.90;;;3.58;;
53263;SDS011;39153;52.680;6.172;2023-09-08T13:12:09;9.32;;;4.10;;
53263;SDS011;39153;52.680;6.172;2023-09-08T13:14:37;7.53;;;3.95;;
53263;SDS011;39153;52.680;6.172;2023-09-08T13:17:03;5.43;;;3.90;;
53263;SDS011;39153;52.680;6.172;2023-09-08T13:19:29;7.57;;;4.00;;
53263;SDS011;39153;52.680;6.172;2023-09-08T13:21:55;7.07;;;3.90;;
53263;SDS011;39153;52.680;6.172;2023-09-08T13:24:20;7.07;;;3.85;;
53263;SDS011;39153;52.680;6.172;2023-09-08T13:26:47;9.15;;;3.85;;
53263;SDS011;39153;52.680;6.172;2023-09-08T13:29:13;6.57;;;3.53;;
53263;SDS011;39153;52.680;6.172;2023-09-08T13:31:39;6.28;;;3.80;;
53263;SDS011;39153;52.680;6.172;2023-09-08T13:34:05;6.68;;;4.28;;
53263;SDS011;39153;52.680;6.172;2023-09-08T13:36:31;6.05;;;3.80;;
53263;SDS011;39153;52.680;6.172;2023-09-08T13:38:56;8.20;;;3.95;;
53263;SDS011;39153;52.680;6.172;2023-09-08T13:41:23;6.50;;;3.95;;
53263;SDS011;39153;52.680;6.172;2023-09-08T13:43:49;8.25;;;4.22;;
53263;SDS011;39153;52.680;6.172;2023-09-08T13:46:15;9.65;;;4.80;;
53263;SDS011;39153;52.680;6.172;2023-09-08T13:48:41;5.10;;;3.53;;
53263;SDS011;39153;52.680;6.172;2023-09-08T13:51:07;7.18;;;3.60;;
53263;SDS011;39153;52.680;6.172;2023-09-08T13:53:33;6.75;;;3.72;;
53263;SDS011;39153;52.680;6.172;2023-09-08T13:56:00;6.82;;;3.72;;
53263;SDS011;39153;52.680;6.172;2023-09-08T13:58:26;5.22;;;3.72;;
53263;SDS011;39153;52.680;6.172;2023-09-08T14:00:51;6.53;;;3.90;;
53263;SDS011;39153;52.680;6.172;2023-09-08T14:03:17;5.18;;;3.60;;
53263;SDS011;39153;52.680;6.172;2023-09-08T14:05:43;6.47;;;3.65;;
53263;SDS011;39153;52.680;6.172;2023-09-08T14:08:09;6.75;;;3.83;;
53263;SDS011;39153;52.680;6.172;2023-09-08T14:10:35;5.93;;;3.70;;
53263;SDS011;39153;52.680;6.172;2023-09-08T14:13:01;7.35;;;3.97;;
53263;SDS011;39153;52.680;6.172;2023-09-08T14:15:27;9.50;;;3.80;;
53263;SDS011;39153;52.680;6.172;2023-09-08T14:17:52;6.15;;;3.42;;
53263;SDS011;39153;52.680;6.172;2023-09-08T14:20:18;5.88;;;3.83;;
53263;SDS011;39153;52.680;6.172;2023-09-08T14:22:44;7.43;;;3.67;;
53263;SDS011;39153;52.680;6.172;2023-09-08T14:25:10;6.22;;;3.70;;
53263;SDS011;39153;52.680;6.172;2023-09-08T14:27:36;7.70;;;3.70;;
53263;SDS011;39153;52.680;6.172;2023-09-08T14:30:02;7.35;;;3.53;;
53263;SDS011;39153;52.680;6.172;2023-09-08T14:32:31;7.13;;;3.83;;
53263;SDS011;39153;52.680;6.172;2023-09-08T14:34:57;7.07;;;4.07;;
53263;SDS011;39153;52.680;6.172;2023-09-08T14:37:23;5.82;;;3.58;;
53263;SDS011;39153;52.680;6.172;2023-09-08T14:39:48;7.00;;;3.83;;
53263;SDS011;39153;52.680;6.172;2023-09-08T14:42:14;6.75;;;3.80;;
53263;SDS011;39153;52.680;6.172;2023-09-08T14:44:41;6.05;;;3.47;;
53263;SDS011;39153;52.680;6.172;2023-09-08T14:47:07;8.02;;;3.63;;